Aérodrome :







RETROUVEZ-NOUS SUR...

 
LOGIN :

S'inscrire | Disclaimer

   EN    FR    IT 

 









Légende :    VFR   VFR Marginal   IFR   IFR Intensif   IFR Très Intensif
Visi : 
Plafond : 
>= 8 km
>= 3000ft
5 à 8 km
1000 à 3000 ft
1500m à 5 km
500 à 1000 ft
800 à 1500m
200 à 500 ft
< 800m
< 200 ft
Symboles :   Orages  Brouillard  Fortes neiges  Fortes précipitations  Vent > 20 kt






- Altitude de l'aérodrome : 35 ft
- Code IATA : YGR


CYGR - ëles-de-la-Madeleine

DERNIER METAR :
  • 180100Z 34034G47KT 12SM -SHSN DRSN OVC030 M12/M17 A2999 RMK CU8 SLP156

METARs EXPIRÉS :
  • 180027Z 35036G46KT 15SM -SHSN DRSN OVC025 M12/M16 A2998 RMK CU8 SLP153
  • 180000Z 34038G47KT 5SM -SHSN BLSN OVC025 M12/M16 A2998 RMK CU8 SLP154
  • 172300Z 34035G46KT 5SM -SHSN BLSN OVC024 M12/M16 A2997 RMK CU8 SLP151

TAF AMD TAF CYGR
Valide du 18 à 00h jusqu'au 18 à 03h UTC


180037Z 1800/1803 35030G45KT 6SM -SN OVC025
TEMPO 1800/1803 2SM -SN BLSN VV015 RMK NXT FCST WILL BE ISSUED AT 181145Z



MET'MAP, la Météo Aéronautique d'un coup d'oeil ! - Copyright ORBIFLY Décembre 2007 - Disclaimer

ORBIFLY MET'MAP TEAM :

Programmation & Développement : Alexandra Zaïnal
Sur une idée originale de : Baudouin d'Aumeries
Assistance à la programmation : Marc-Olivier Méhu
Soutien technique & logistique : Manuel Goepfert

Contact : metmap@orbifly.com




SOURCES & CREDITS :

   NOAA